Mammoth Cave, Kentucky
Current Conditions -  °F | °C
As of 8:35 PM on Sunday 21 Dec 2014 (Local Time) from KGLW Reporting Station
Broken Clouds Broken Clouds  
Wind Chill: 38°   Ceiling: 4500
Heat Index: 38°   Visibility: 10mi
Dew Point: 30°   Wind: 0mph
Humidity: 71%   Direction: NA
Pressure: 30.07"   Gusts: NA
Location:  37.19°N, 86.1°W
Report Text: KGLW 220235Z AUTO 00000KT 10SM BKN045 04/M01 A3007 RMK AO2 T00351013
Loading
Personal Weather Stations






























Interactive Weather Map New forecast layout! Learn more

10-Day Weather Forecast

Advertisements
Track Severe Weather on mobile